sensor_id;sensor_type;location;lat;lon;timestamp;P1;durP1;ratioP1;P2;durP2;ratioP2
30723;SDS011;17473;52.286;20.930;2023-02-01T00:01:05;8.87;;;5.07;;
30723;SDS011;17473;52.286;20.930;2023-02-01T00:03:33;7.10;;;4.90;;
30723;SDS011;17473;52.286;20.930;2023-02-01T00:06:01;5.03;;;4.07;;
30723;SDS011;17473;52.286;20.930;2023-02-01T00:08:28;8.00;;;5.40;;
30723;SDS011;17473;52.286;20.930;2023-02-01T00:11:13;10.23;;;4.90;;
30723;SDS011;17473;52.286;20.930;2023-02-01T00:13:41;5.47;;;4.63;;
30723;SDS011;17473;52.286;20.930;2023-02-01T00:16:09;6.63;;;4.70;;
30723;SDS011;17473;52.286;20.930;2023-02-01T00:18:39;7.50;;;4.47;;
30723;SDS011;17473;52.286;20.930;2023-02-01T00:21:06;5.97;;;4.20;;
30723;SDS011;17473;52.286;20.930;2023-02-01T00:23:36;5.60;;;4.23;;
30723;SDS011;17473;52.286;20.930;2023-02-01T00:26:05;5.97;;;4.13;;
30723;SDS011;17473;52.286;20.930;2023-02-01T00:28:43;5.80;;;3.93;;
30723;SDS011;17473;52.286;20.930;2023-02-01T00:31:10;5.63;;;3.63;;
30723;SDS011;17473;52.286;20.930;2023-02-01T00:33:38;6.60;;;3.77;;
30723;SDS011;17473;52.286;20.930;2023-02-01T00:36:06;5.33;;;3.80;;
30723;SDS011;17473;52.286;20.930;2023-02-01T00:38:36;4.90;;;3.33;;
30723;SDS011;17473;52.286;20.930;2023-02-01T00:41:22;7.97;;;3.73;;
30723;SDS011;17473;52.286;20.930;2023-02-01T00:43:50;5.63;;;3.20;;
30723;SDS011;17473;52.286;20.930;2023-02-01T00:46:18;5.03;;;3.10;;
30723;SDS011;17473;52.286;20.930;2023-02-01T00:48:48;5.37;;;3.33;;
30723;SDS011;17473;52.286;20.930;2023-02-01T00:51:16;3.57;;;2.50;;
30723;SDS011;17473;52.286;20.930;2023-02-01T00:53:48;4.77;;;2.77;;
30723;SDS011;17473;52.286;20.930;2023-02-01T00:56:15;5.50;;;2.53;;
30723;SDS011;17473;52.286;20.930;2023-02-01T00:58:43;2.63;;;1.90;;
30723;SDS011;17473;52.286;20.930;2023-02-01T01:01:15;4.80;;;2.27;;
30723;SDS011;17473;52.286;20.930;2023-02-01T01:03:58;3.70;;;2.37;;
30723;SDS011;17473;52.286;20.930;2023-02-01T01:06:27;2.97;;;1.90;;
30723;SDS011;17473;52.286;20.930;2023-02-01T01:08:57;6.17;;;2.17;;
30723;SDS011;17473;52.286;20.930;2023-02-01T01:11:28;4.20;;;2.00;;
30723;SDS011;17473;52.286;20.930;2023-02-01T01:13:58;5.23;;;1.73;;
30723;SDS011;17473;52.286;20.930;2023-02-01T01:16:27;3.60;;;2.20;;
30723;SDS011;17473;52.286;20.930;2023-02-01T01:18:56;3.57;;;2.00;;
30723;SDS011;17473;52.286;20.930;2023-02-01T01:21:24;4.37;;;2.13;;
30723;SDS011;17473;52.286;20.930;2023-02-01T01:23:52;2.47;;;1.47;;
30723;SDS011;17473;52.286;20.930;2023-02-01T01:26:23;3.63;;;1.20;;
30723;SDS011;17473;52.286;20.930;2023-02-01T01:28:57;3.20;;;1.33;;
30723;SDS011;17473;52.286;20.930;2023-02-01T01:31:25;3.40;;;1.33;;
30723;SDS011;17473;52.286;20.930;2023-02-01T01:33:54;10.13;;;1.77;;
30723;SDS011;17473;52.286;20.930;2023-02-01T01:36:24;3.40;;;1.43;;
30723;SDS011;17473;52.286;20.930;2023-02-01T01:38:53;4.67;;;1.30;;
30723;SDS011;17473;52.286;20.930;2023-02-01T01:41:21;2.90;;;1.37;;
30723;SDS011;17473;52.286;20.930;2023-02-01T01:44:53;7.87;;;1.83;;
30723;SDS011;17473;52.286;20.930;2023-02-01T01:47:52;3.63;;;1.67;;
30723;SDS011;17473;52.286;20.930;2023-02-01T01:50:21;3.83;;;1.37;;
30723;SDS011;17473;52.286;20.930;2023-02-01T01:53:17;1.73;;;1.10;;
30723;SDS011;17473;52.286;20.930;2023-02-01T01:55:51;3.57;;;1.23;;
30723;SDS011;17473;52.286;20.930;2023-02-01T01:58:23;5.20;;;1.60;;
30723;SDS011;17473;52.286;20.930;2023-02-01T02:00:55;5.70;;;1.50;;
30723;SDS011;17473;52.286;20.930;2023-02-01T02:03:28;5.17;;;1.70;;
30723;SDS011;17473;52.286;20.930;2023-02-01T02:06:20;5.33;;;1.73;;
30723;SDS011;17473;52.286;20.930;2023-02-01T02:08:54;6.27;;;1.67;;
30723;SDS011;17473;52.286;20.930;2023-02-01T02:11:22;6.50;;;2.13;;
30723;SDS011;17473;52.286;20.930;2023-02-01T02:13:50;6.70;;;1.57;;
30723;SDS011;17473;52.286;20.930;2023-02-01T02:36:14;7.73;;;2.60;;
30723;SDS011;17473;52.286;20.930;2023-02-01T02:39:27;7.73;;;1.77;;
30723;SDS011;17473;52.286;20.930;2023-02-01T02:42:23;7.97;;;2.03;;
30723;SDS011;17473;52.286;20.930;2023-02-01T02:51:58;3.93;;;1.40;;
30723;SDS011;17473;52.286;20.930;2023-02-01T02:54:47;6.60;;;2.33;;
30723;SDS011;17473;52.286;20.930;2023-02-01T02:57:32;4.63;;;1.60;;
30723;SDS011;17473;52.286;20.930;2023-02-01T03:00:27;6.33;;;1.87;;
30723;SDS011;17473;52.286;20.930;2023-02-01T03:03:17;7.90;;;1.87;;
30723;SDS011;17473;52.286;20.930;2023-02-01T03:06:03;5.63;;;2.00;;
30723;SDS011;17473;52.286;20.930;2023-02-01T03:08:38;5.63;;;2.20;;
30723;SDS011;17473;52.286;20.930;2023-02-01T03:11:12;5.40;;;1.70;;
30723;SDS011;17473;52.286;20.930;2023-02-01T03:13:51;9.30;;;2.37;;
30723;SDS011;17473;52.286;20.930;2023-02-01T03:19:10;9.37;;;2.33;;
30723;SDS011;17473;52.286;20.930;2023-02-01T03:22:02;12.67;;;2.70;;
30723;SDS011;17473;52.286;20.930;2023-02-01T03:24:37;10.30;;;2.17;;
30723;SDS011;17473;52.286;20.930;2023-02-01T03:27:13;14.37;;;2.20;;
30723;SDS011;17473;52.286;20.930;2023-02-01T03:29:58;9.30;;;2.50;;
30723;SDS011;17473;52.286;20.930;2023-02-01T03:32:48;6.23;;;1.67;;
30723;SDS011;17473;52.286;20.930;2023-02-01T03:35:28;10.30;;;3.03;;
30723;SDS011;17473;52.286;20.930;2023-02-01T03:41:11;11.73;;;2.33;;
30723;SDS011;17473;52.286;20.930;2023-02-01T03:46:45;11.97;;;2.73;;
30723;SDS011;17473;52.286;20.930;2023-02-01T03:49:30;10.53;;;3.07;;
30723;SDS011;17473;52.286;20.930;2023-02-01T03:52:11;13.93;;;2.20;;
30723;SDS011;17473;52.286;20.930;2023-02-01T03:54:46;7.57;;;2.33;;
30723;SDS011;17473;52.286;20.930;2023-02-01T03:57:16;6.07;;;1.90;;
30723;SDS011;17473;52.286;20.930;2023-02-01T03:59:53;8.03;;;1.90;;
30723;SDS011;17473;52.286;20.930;2023-02-01T04:02:20;14.07;;;2.43;;
30723;SDS011;17473;52.286;20.930;2023-02-01T04:04:47;7.17;;;2.10;;
30723;SDS011;17473;52.286;20.930;2023-02-01T04:07:14;12.27;;;2.47;;
30723;SDS011;17473;52.286;20.930;2023-02-01T04:09:43;7.90;;;2.60;;
30723;SDS011;17473;52.286;20.930;2023-02-01T04:12:10;8.13;;;2.23;;
30723;SDS011;17473;52.286;20.930;2023-02-01T04:14:37;13.57;;;3.00;;
30723;SDS011;17473;52.286;20.930;2023-02-01T04:17:04;9.20;;;2.30;;
30723;SDS011;17473;52.286;20.930;2023-02-01T04:19:31;8.37;;;2.27;;
30723;SDS011;17473;52.286;20.930;2023-02-01T04:21:58;8.20;;;2.20;;
30723;SDS011;17473;52.286;20.930;2023-02-01T04:24:25;8.40;;;2.40;;
30723;SDS011;17473;52.286;20.930;2023-02-01T04:26:52;8.27;;;2.10;;
30723;SDS011;17473;52.286;20.930;2023-02-01T04:29:19;9.27;;;2.37;;
30723;SDS011;17473;52.286;20.930;2023-02-01T04:31:46;10.10;;;2.80;;
30723;SDS011;17473;52.286;20.930;2023-02-01T04:34:14;11.87;;;2.93;;
30723;SDS011;17473;52.286;20.930;2023-02-01T04:36:41;12.07;;;2.73;;
30723;SDS011;17473;52.286;20.930;2023-02-01T04:39:12;10.13;;;2.47;;
30723;SDS011;17473;52.286;20.930;2023-02-01T04:41:39;16.07;;;3.40;;
30723;SDS011;17473;52.286;20.930;2023-02-01T04:44:08;9.70;;;2.57;;
30723;SDS011;17473;52.286;20.930;2023-02-01T04:46:44;12.10;;;3.13;;
30723;SDS011;17473;52.286;20.930;2023-02-01T04:49:13;11.07;;;3.23;;
30723;SDS011;17473;52.286;20.930;2023-02-01T04:51:41;9.27;;;2.83;;
30723;SDS011;17473;52.286;20.930;2023-02-01T04:54:09;9.20;;;2.03;;
30723;SDS011;17473;52.286;20.930;2023-02-01T04:56:39;8.53;;;2.40;;
30723;SDS011;17473;52.286;20.930;2023-02-01T04:59:06;8.10;;;2.37;;
30723;SDS011;17473;52.286;20.930;2023-02-01T05:01:34;7.10;;;2.37;;
30723;SDS011;17473;52.286;20.930;2023-02-01T05:04:01;10.93;;;2.47;;
30723;SDS011;17473;52.286;20.930;2023-02-01T05:06:29;8.43;;;2.60;;
30723;SDS011;17473;52.286;20.930;2023-02-01T05:08:56;9.20;;;2.50;;
30723;SDS011;17473;52.286;20.930;2023-02-01T05:11:23;15.33;;;2.73;;
30723;SDS011;17473;52.286;20.930;2023-02-01T05:14:09;13.43;;;2.57;;
30723;SDS011;17473;52.286;20.930;2023-02-01T05:16:38;9.80;;;2.27;;
30723;SDS011;17473;52.286;20.930;2023-02-01T05:19:06;11.47;;;3.07;;
30723;SDS011;17473;52.286;20.930;2023-02-01T05:21:33;8.53;;;2.83;;
30723;SDS011;17473;52.286;20.930;2023-02-01T05:24:00;9.03;;;3.00;;
30723;SDS011;17473;52.286;20.930;2023-02-01T05:26:36;12.70;;;2.33;;
30723;SDS011;17473;52.286;20.930;2023-02-01T05:29:05;12.60;;;3.23;;
30723;SDS011;17473;52.286;20.930;2023-02-01T05:31:32;13.67;;;2.77;;
30723;SDS011;17473;52.286;20.930;2023-02-01T05:34:00;13.57;;;2.73;;
30723;SDS011;17473;52.286;20.930;2023-02-01T05:36:27;9.43;;;2.50;;
30723;SDS011;17473;52.286;20.930;2023-02-01T05:38:55;10.67;;;2.87;;
30723;SDS011;17473;52.286;20.930;2023-02-01T05:41:22;8.67;;;2.70;;
30723;SDS011;17473;52.286;20.930;2023-02-01T05:43:49;13.57;;;2.37;;
30723;SDS011;17473;52.286;20.930;2023-02-01T05:46:16;7.63;;;2.50;;
30723;SDS011;17473;52.286;20.930;2023-02-01T05:48:43;12.03;;;2.77;;
30723;SDS011;17473;52.286;20.930;2023-02-01T05:51:11;11.40;;;2.80;;
30723;SDS011;17473;52.286;20.930;2023-02-01T05:53:39;13.20;;;2.40;;
30723;SDS011;17473;52.286;20.930;2023-02-01T05:56:06;14.03;;;3.20;;
30723;SDS011;17473;52.286;20.930;2023-02-01T05:58:33;8.07;;;2.63;;
30723;SDS011;17473;52.286;20.930;2023-02-01T06:01:01;10.73;;;3.30;;
30723;SDS011;17473;52.286;20.930;2023-02-01T06:03:29;7.60;;;2.60;;
30723;SDS011;17473;52.286;20.930;2023-02-01T06:05:57;8.87;;;2.80;;
30723;SDS011;17473;52.286;20.930;2023-02-01T06:08:24;9.33;;;2.50;;
30723;SDS011;17473;52.286;20.930;2023-02-01T06:10:57;10.17;;;2.73;;
30723;SDS011;17473;52.286;20.930;2023-02-01T06:13:29;7.67;;;2.73;;
30723;SDS011;17473;52.286;20.930;2023-02-01T06:16:00;9.53;;;2.30;;
30723;SDS011;17473;52.286;20.930;2023-02-01T06:18:33;12.27;;;2.57;;
30723;SDS011;17473;52.286;20.930;2023-02-01T06:21:01;11.03;;;3.03;;
30723;SDS011;17473;52.286;20.930;2023-02-01T06:23:29;10.17;;;2.70;;
30723;SDS011;17473;52.286;20.930;2023-02-01T06:26:03;9.97;;;2.83;;
30723;SDS011;17473;52.286;20.930;2023-02-01T06:28:34;15.37;;;2.90;;
30723;SDS011;17473;52.286;20.930;2023-02-01T06:31:04;11.43;;;3.20;;
30723;SDS011;17473;52.286;20.930;2023-02-01T06:33:33;9.57;;;3.53;;
30723;SDS011;17473;52.286;20.930;2023-02-01T06:36:03;15.53;;;3.03;;
30723;SDS011;17473;52.286;20.930;2023-02-01T06:38:33;15.33;;;3.57;;
30723;SDS011;17473;52.286;20.930;2023-02-01T06:41:01;12.67;;;3.10;;
30723;SDS011;17473;52.286;20.930;2023-02-01T06:43:29;6.97;;;2.30;;
30723;SDS011;17473;52.286;20.930;2023-02-01T06:45:59;9.80;;;2.17;;
30723;SDS011;17473;52.286;20.930;2023-02-01T06:48:29;12.43;;;3.53;;
30723;SDS011;17473;52.286;20.930;2023-02-01T06:50:57;9.83;;;2.77;;
30723;SDS011;17473;52.286;20.930;2023-02-01T06:53:24;12.00;;;2.77;;
30723;SDS011;17473;52.286;20.930;2023-02-01T06:55:56;7.03;;;1.83;;
30723;SDS011;17473;52.286;20.930;2023-02-01T06:58:29;7.03;;;2.73;;
30723;SDS011;17473;52.286;20.930;2023-02-01T07:00:57;9.43;;;2.20;;
30723;SDS011;17473;52.286;20.930;2023-02-01T07:03:31;9.77;;;3.30;;
30723;SDS011;17473;52.286;20.930;2023-02-01T07:05:58;11.10;;;2.77;;
30723;SDS011;17473;52.286;20.930;2023-02-01T07:08:29;9.10;;;2.37;;
30723;SDS011;17473;52.286;20.930;2023-02-01T07:11:17;8.43;;;3.03;;
30723;SDS011;17473;52.286;20.930;2023-02-01T07:13:45;6.57;;;2.50;;
30723;SDS011;17473;52.286;20.930;2023-02-01T07:16:14;8.13;;;2.23;;
30723;SDS011;17473;52.286;20.930;2023-02-01T07:18:47;7.37;;;2.40;;
30723;SDS011;17473;52.286;20.930;2023-02-01T07:21:16;7.27;;;2.40;;
30723;SDS011;17473;52.286;20.930;2023-02-01T07:23:44;9.73;;;2.67;;
30723;SDS011;17473;52.286;20.930;2023-02-01T07:26:12;9.47;;;2.93;;
30723;SDS011;17473;52.286;20.930;2023-02-01T07:28:40;11.77;;;3.10;;
30723;SDS011;17473;52.286;20.930;2023-02-01T07:31:09;9.53;;;2.87;;
30723;SDS011;17473;52.286;20.930;2023-02-01T07:33:44;7.07;;;2.53;;
30723;SDS011;17473;52.286;20.930;2023-02-01T07:36:13;11.40;;;2.50;;
30723;SDS011;17473;52.286;20.930;2023-02-01T07:38:43;10.57;;;2.73;;
30723;SDS011;17473;52.286;20.930;2023-02-01T07:41:13;6.40;;;2.53;;
30723;SDS011;17473;52.286;20.930;2023-02-01T07:43:40;8.83;;;2.93;;
30723;SDS011;17473;52.286;20.930;2023-02-01T07:46:07;11.37;;;2.17;;
30723;SDS011;17473;52.286;20.930;2023-02-01T07:48:37;8.67;;;2.70;;
30723;SDS011;17473;52.286;20.930;2023-02-01T07:51:05;9.83;;;3.33;;
30723;SDS011;17473;52.286;20.930;2023-02-01T07:53:39;10.57;;;3.63;;
30723;SDS011;17473;52.286;20.930;2023-02-01T07:56:11;11.13;;;3.50;;
30723;SDS011;17473;52.286;20.930;2023-02-01T07:58:42;10.70;;;2.60;;
30723;SDS011;17473;52.286;20.930;2023-02-01T08:01:13;13.97;;;3.03;;
30723;SDS011;17473;52.286;20.930;2023-02-01T08:03:51;16.23;;;3.13;;
30723;SDS011;17473;52.286;20.930;2023-02-01T08:06:31;11.27;;;2.83;;
30723;SDS011;17473;52.286;20.930;2023-02-01T08:09:03;10.73;;;3.13;;
30723;SDS011;17473;52.286;20.930;2023-02-01T08:11:31;12.90;;;2.97;;
30723;SDS011;17473;52.286;20.930;2023-02-01T08:13:58;10.27;;;3.17;;
30723;SDS011;17473;52.286;20.930;2023-02-01T08:16:25;13.47;;;3.27;;
30723;SDS011;17473;52.286;20.930;2023-02-01T08:18:53;9.07;;;3.13;;
30723;SDS011;17473;52.286;20.930;2023-02-01T08:21:25;10.60;;;3.23;;
30723;SDS011;17473;52.286;20.930;2023-02-01T08:24:05;11.90;;;2.73;;
30723;SDS011;17473;52.286;20.930;2023-02-01T08:26:35;9.77;;;2.60;;
30723;SDS011;17473;52.286;20.930;2023-02-01T08:29:03;14.10;;;3.40;;
30723;SDS011;17473;52.286;20.930;2023-02-01T08:31:32;16.30;;;3.13;;
30723;SDS011;17473;52.286;20.930;2023-02-01T08:34:00;11.87;;;2.80;;
30723;SDS011;17473;52.286;20.930;2023-02-01T08:36:31;11.50;;;3.40;;
30723;SDS011;17473;52.286;20.930;2023-02-01T08:38:59;16.73;;;3.47;;
30723;SDS011;17473;52.286;20.930;2023-02-01T08:41:27;11.60;;;3.10;;
30723;SDS011;17473;52.286;20.930;2023-02-01T08:43:56;12.37;;;2.90;;
30723;SDS011;17473;52.286;20.930;2023-02-01T08:46:24;9.13;;;3.57;;
30723;SDS011;17473;52.286;20.930;2023-02-01T08:48:52;11.00;;;2.80;;
30723;SDS011;17473;52.286;20.930;2023-02-01T08:51:20;8.00;;;3.03;;
30723;SDS011;17473;52.286;20.930;2023-02-01T08:53:49;12.00;;;3.00;;
30723;SDS011;17473;52.286;20.930;2023-02-01T08:56:17;11.93;;;2.63;;
30723;SDS011;17473;52.286;20.930;2023-02-01T08:58:45;8.17;;;2.93;;
30723;SDS011;17473;52.286;20.930;2023-02-01T09:01:13;22.53;;;3.50;;
30723;SDS011;17473;52.286;20.930;2023-02-01T09:03:43;12.40;;;4.00;;
30723;SDS011;17473;52.286;20.930;2023-02-01T09:06:11;9.67;;;2.97;;
30723;SDS011;17473;52.286;20.930;2023-02-01T09:08:40;11.07;;;3.20;;
30723;SDS011;17473;52.286;20.930;2023-02-01T09:11:10;14.17;;;3.27;;
30723;SDS011;17473;52.286;20.930;2023-02-01T09:13:41;8.03;;;2.80;;
30723;SDS011;17473;52.286;20.930;2023-02-01T09:16:08;10.40;;;3.20;;
30723;SDS011;17473;52.286;20.930;2023-02-01T09:18:36;13.93;;;3.70;;
30723;SDS011;17473;52.286;20.930;2023-02-01T09:21:21;9.80;;;2.87;;
30723;SDS011;17473;52.286;20.930;2023-02-01T09:23:48;13.77;;;4.30;;
30723;SDS011;17473;52.286;20.930;2023-02-01T09:26:17;13.00;;;3.70;;
30723;SDS011;17473;52.286;20.930;2023-02-01T09:28:48;11.47;;;3.83;;
30723;SDS011;17473;52.286;20.930;2023-02-01T09:31:15;11.57;;;3.47;;
30723;SDS011;17473;52.286;20.930;2023-02-01T09:33:42;10.43;;;3.73;;
30723;SDS011;17473;52.286;20.930;2023-02-01T09:36:09;11.93;;;3.00;;
30723;SDS011;17473;52.286;20.930;2023-02-01T09:38:36;12.77;;;3.67;;
30723;SDS011;17473;52.286;20.930;2023-02-01T09:41:21;10.30;;;3.23;;
30723;SDS011;17473;52.286;20.930;2023-02-01T09:44:25;12.30;;;2.97;;
30723;SDS011;17473;52.286;20.930;2023-02-01T09:47:18;11.00;;;3.70;;
30723;SDS011;17473;52.286;20.930;2023-02-01T09:52:38;12.63;;;3.23;;
30723;SDS011;17473;52.286;20.930;2023-02-01T09:55:19;11.17;;;3.60;;
30723;SDS011;17473;52.286;20.930;2023-02-01T10:00:57;14.20;;;3.87;;
30723;SDS011;17473;52.286;20.930;2023-02-01T10:03:32;10.93;;;3.20;;
30723;SDS011;17473;52.286;20.930;2023-02-01T10:11:57;9.20;;;3.17;;
30723;SDS011;17473;52.286;20.930;2023-02-01T10:23:25;11.13;;;3.27;;
30723;SDS011;17473;52.286;20.930;2023-02-01T10:28:50;17.47;;;4.27;;
30723;SDS011;17473;52.286;20.930;2023-02-01T10:31:29;8.10;;;3.00;;
30723;SDS011;17473;52.286;20.930;2023-02-01T10:34:06;15.03;;;3.67;;
30723;SDS011;17473;52.286;20.930;2023-02-01T10:36:58;13.50;;;3.50;;
30723;SDS011;17473;52.286;20.930;2023-02-01T10:39:34;10.80;;;3.63;;
30723;SDS011;17473;52.286;20.930;2023-02-01T10:42:03;9.73;;;3.57;;
30723;SDS011;17473;52.286;20.930;2023-02-01T10:44:30;8.80;;;3.23;;
30723;SDS011;17473;52.286;20.930;2023-02-01T10:47:11;12.63;;;3.43;;
30723;SDS011;17473;52.286;20.930;2023-02-01T10:49:38;10.37;;;3.87;;
30723;SDS011;17473;52.286;20.930;2023-02-01T10:58:28;9.77;;;3.27;;
30723;SDS011;17473;52.286;20.930;2023-02-01T11:01:02;11.10;;;3.77;;
30723;SDS011;17473;52.286;20.930;2023-02-01T11:03:44;9.53;;;3.03;;
30723;SDS011;17473;52.286;20.930;2023-02-01T11:06:34;11.27;;;3.23;;
30723;SDS011;17473;52.286;20.930;2023-02-01T11:14:45;9.53;;;3.37;;
30723;SDS011;17473;52.286;20.930;2023-02-01T11:19:58;15.03;;;4.03;;
30723;SDS011;17473;52.286;20.930;2023-02-01T11:22:30;12.43;;;3.10;;
30723;SDS011;17473;52.286;20.930;2023-02-01T11:24:58;9.20;;;3.57;;
30723;SDS011;17473;52.286;20.930;2023-02-01T11:27:27;9.27;;;3.33;;
30723;SDS011;17473;52.286;20.930;2023-02-01T11:29:56;8.87;;;3.03;;
30723;SDS011;17473;52.286;20.930;2023-02-01T11:32:28;11.63;;;3.60;;
30723;SDS011;17473;52.286;20.930;2023-02-01T11:35:00;9.27;;;3.17;;
30723;SDS011;17473;52.286;20.930;2023-02-01T11:37:38;12.30;;;3.87;;
30723;SDS011;17473;52.286;20.930;2023-02-01T11:40:22;12.03;;;3.87;;
30723;SDS011;17473;52.286;20.930;2023-02-01T11:45:56;15.83;;;3.93;;
30723;SDS011;17473;52.286;20.930;2023-02-01T11:48:30;7.33;;;3.47;;
30723;SDS011;17473;52.286;20.930;2023-02-01T11:54:04;7.33;;;3.33;;
30723;SDS011;17473;52.286;20.930;2023-02-01T11:57:42;12.47;;;3.83;;
30723;SDS011;17473;52.286;20.930;2023-02-01T12:12:31;13.60;;;3.87;;
30723;SDS011;17473;52.286;20.930;2023-02-01T12:21:34;9.73;;;3.60;;
30723;SDS011;17473;52.286;20.930;2023-02-01T12:38:57;13.83;;;3.90;;
30723;SDS011;17473;52.286;20.930;2023-02-01T12:47:34;10.20;;;3.90;;
30723;SDS011;17473;52.286;20.930;2023-02-01T12:55:51;13.93;;;4.07;;
30723;SDS011;17473;52.286;20.930;2023-02-01T12:58:27;12.50;;;3.87;;
30723;SDS011;17473;52.286;20.930;2023-02-01T13:01:26;11.87;;;4.13;;
30723;SDS011;17473;52.286;20.930;2023-02-01T13:07:10;10.77;;;4.07;;
30723;SDS011;17473;52.286;20.930;2023-02-01T13:09:52;16.57;;;4.90;;
30723;SDS011;17473;52.286;20.930;2023-02-01T13:12:36;14.37;;;4.63;;
30723;SDS011;17473;52.286;20.930;2023-02-01T13:15:13;15.27;;;4.93;;
30723;SDS011;17473;52.286;20.930;2023-02-01T13:17:57;13.77;;;3.60;;
30723;SDS011;17473;52.286;20.930;2023-02-01T13:20:34;13.00;;;3.63;;
30723;SDS011;17473;52.286;20.930;2023-02-01T13:23:13;12.73;;;4.00;;
30723;SDS011;17473;52.286;20.930;2023-02-01T13:25:59;12.53;;;3.30;;
30723;SDS011;17473;52.286;20.930;2023-02-01T13:42:56;10.93;;;3.00;;
30723;SDS011;17473;52.286;20.930;2023-02-01T13:45:29;9.80;;;3.93;;
30723;SDS011;17473;52.286;20.930;2023-02-01T13:48:04;10.87;;;3.73;;
30723;SDS011;17473;52.286;20.930;2023-02-01T13:50:41;12.77;;;4.10;;
30723;SDS011;17473;52.286;20.930;2023-02-01T13:55:45;15.57;;;4.00;;
30723;SDS011;17473;52.286;20.930;2023-02-01T13:58:32;10.20;;;3.53;;
30723;SDS011;17473;52.286;20.930;2023-02-01T14:03:54;10.63;;;3.63;;
30723;SDS011;17473;52.286;20.930;2023-02-01T14:19:20;10.43;;;3.43;;
30723;SDS011;17473;52.286;20.930;2023-02-01T14:22:01;9.40;;;3.50;;
30723;SDS011;17473;52.286;20.930;2023-02-01T14:24:50;11.77;;;4.20;;
30723;SDS011;17473;52.286;20.930;2023-02-01T14:27:24;9.33;;;3.40;;
30723;SDS011;17473;52.286;20.930;2023-02-01T14:30:02;8.70;;;3.23;;
30723;SDS011;17473;52.286;20.930;2023-02-01T14:32:34;13.10;;;4.23;;
30723;SDS011;17473;52.286;20.930;2023-02-01T14:35:17;9.33;;;3.50;;
30723;SDS011;17473;52.286;20.930;2023-02-01T14:37:50;12.93;;;3.93;;
30723;SDS011;17473;52.286;20.930;2023-02-01T14:40:25;8.67;;;3.57;;
30723;SDS011;17473;52.286;20.930;2023-02-01T14:42:54;7.80;;;3.23;;
30723;SDS011;17473;52.286;20.930;2023-02-01T14:58:40;6.17;;;2.37;;
30723;SDS011;17473;52.286;20.930;2023-02-01T15:01:38;6.53;;;2.87;;
30723;SDS011;17473;52.286;20.930;2023-02-01T15:04:18;6.67;;;2.73;;
30723;SDS011;17473;52.286;20.930;2023-02-01T15:06:54;4.47;;;2.40;;
30723;SDS011;17473;52.286;20.930;2023-02-01T15:14:44;9.00;;;3.50;;
30723;SDS011;17473;52.286;20.930;2023-02-01T15:17:25;7.00;;;3.00;;
30723;SDS011;17473;52.286;20.930;2023-02-01T15:20:01;10.03;;;3.60;;
30723;SDS011;17473;52.286;20.930;2023-02-01T15:23:20;6.33;;;3.00;;
30723;SDS011;17473;52.286;20.930;2023-02-01T15:25:45;8.93;;;3.37;;
30723;SDS011;17473;52.286;20.930;2023-02-01T15:28:13;6.77;;;3.03;;
30723;SDS011;17473;52.286;20.930;2023-02-01T15:30:53;5.63;;;3.03;;
30723;SDS011;17473;52.286;20.930;2023-02-01T15:33:34;9.77;;;3.23;;
30723;SDS011;17473;52.286;20.930;2023-02-01T15:36:22;7.67;;;3.30;;
30723;SDS011;17473;52.286;20.930;2023-02-01T15:41:46;7.80;;;2.97;;
30723;SDS011;17473;52.286;20.930;2023-02-01T15:44:18;7.97;;;3.57;;
30723;SDS011;17473;52.286;20.930;2023-02-01T15:46:54;5.63;;;3.03;;
30723;SDS011;17473;52.286;20.930;2023-02-01T15:51:59;6.80;;;2.97;;
30723;SDS011;17473;52.286;20.930;2023-02-01T15:54:31;5.93;;;2.97;;
30723;SDS011;17473;52.286;20.930;2023-02-01T15:57:19;10.07;;;3.43;;
30723;SDS011;17473;52.286;20.930;2023-02-01T15:59:57;5.70;;;3.33;;
30723;SDS011;17473;52.286;20.930;2023-02-01T16:02:34;8.87;;;3.90;;
30723;SDS011;17473;52.286;20.930;2023-02-01T16:08:26;8.50;;;4.00;;
30723;SDS011;17473;52.286;20.930;2023-02-01T16:10:59;8.63;;;4.20;;
30723;SDS011;17473;52.286;20.930;2023-02-01T16:14:05;8.83;;;4.77;;
30723;SDS011;17473;52.286;20.930;2023-02-01T16:16:32;10.20;;;4.57;;
30723;SDS011;17473;52.286;20.930;2023-02-01T16:18:59;8.23;;;4.63;;
30723;SDS011;17473;52.286;20.930;2023-02-01T16:21:26;11.10;;;4.20;;
30723;SDS011;17473;52.286;20.930;2023-02-01T16:23:53;7.40;;;4.03;;
30723;SDS011;17473;52.286;20.930;2023-02-01T16:26:21;11.30;;;4.77;;
30723;SDS011;17473;52.286;20.930;2023-02-01T16:28:48;11.30;;;5.40;;
30723;SDS011;17473;52.286;20.930;2023-02-01T16:31:15;7.97;;;4.50;;
30723;SDS011;17473;52.286;20.930;2023-02-01T16:33:48;6.87;;;4.20;;
30723;SDS011;17473;52.286;20.930;2023-02-01T16:36:17;6.27;;;4.17;;
30723;SDS011;17473;52.286;20.930;2023-02-01T16:38:45;10.57;;;4.40;;
30723;SDS011;17473;52.286;20.930;2023-02-01T16:41:17;8.30;;;4.43;;
30723;SDS011;17473;52.286;20.930;2023-02-01T16:43:49;7.83;;;4.50;;
30723;SDS011;17473;52.286;20.930;2023-02-01T16:46:18;9.70;;;4.50;;
30723;SDS011;17473;52.286;20.930;2023-02-01T16:48:52;8.87;;;4.43;;
30723;SDS011;17473;52.286;20.930;2023-02-01T16:51:25;10.33;;;4.47;;
30723;SDS011;17473;52.286;20.930;2023-02-01T16:53:59;10.70;;;4.37;;
30723;SDS011;17473;52.286;20.930;2023-02-01T16:56:32;7.73;;;4.50;;
30723;SDS011;17473;52.286;20.930;2023-02-01T16:59:00;8.80;;;4.10;;
30723;SDS011;17473;52.286;20.930;2023-02-01T17:01:28;11.03;;;5.10;;
30723;SDS011;17473;52.286;20.930;2023-02-01T17:03:55;9.83;;;4.50;;
30723;SDS011;17473;52.286;20.930;2023-02-01T17:06:24;11.50;;;5.17;;
30723;SDS011;17473;52.286;20.930;2023-02-01T17:08:54;10.40;;;5.77;;
30723;SDS011;17473;52.286;20.930;2023-02-01T17:11:26;9.43;;;5.30;;
30723;SDS011;17473;52.286;20.930;2023-02-01T17:13:56;8.23;;;5.10;;
30723;SDS011;17473;52.286;20.930;2023-02-01T17:16:48;11.43;;;5.40;;
30723;SDS011;17473;52.286;20.930;2023-02-01T17:19:18;13.23;;;4.83;;
30723;SDS011;17473;52.286;20.930;2023-02-01T17:21:52;8.80;;;5.33;;
30723;SDS011;17473;52.286;20.930;2023-02-01T17:24:22;9.23;;;4.57;;
30723;SDS011;17473;52.286;20.930;2023-02-01T17:27:13;9.30;;;5.00;;
30723;SDS011;17473;52.286;20.930;2023-02-01T17:29:41;13.10;;;5.50;;
30723;SDS011;17473;52.286;20.930;2023-02-01T17:32:17;9.27;;;5.57;;
30723;SDS011;17473;52.286;20.930;2023-02-01T17:34:47;12.27;;;5.63;;
30723;SDS011;17473;52.286;20.930;2023-02-01T17:37:24;11.40;;;5.57;;
30723;SDS011;17473;52.286;20.930;2023-02-01T17:40:00;16.67;;;6.80;;
30723;SDS011;17473;52.286;20.930;2023-02-01T17:42:28;13.10;;;5.80;;
30723;SDS011;17473;52.286;20.930;2023-02-01T17:44:59;10.33;;;5.07;;
30723;SDS011;17473;52.286;20.930;2023-02-01T17:47:46;12.33;;;5.23;;
30723;SDS011;17473;52.286;20.930;2023-02-01T17:50:13;10.47;;;4.90;;
30723;SDS011;17473;52.286;20.930;2023-02-01T17:52:41;10.33;;;5.87;;
30723;SDS011;17473;52.286;20.930;2023-02-01T17:55:26;16.47;;;5.67;;
30723;SDS011;17473;52.286;20.930;2023-02-01T17:57:53;13.83;;;5.50;;
30723;SDS011;17473;52.286;20.930;2023-02-01T18:00:20;12.20;;;5.63;;
30723;SDS011;17473;52.286;20.930;2023-02-01T18:02:48;12.50;;;5.30;;
30723;SDS011;17473;52.286;20.930;2023-02-01T18:07:52;13.87;;;5.90;;
30723;SDS011;17473;52.286;20.930;2023-02-01T18:10:19;11.73;;;4.80;;
30723;SDS011;17473;52.286;20.930;2023-02-01T18:12:46;10.57;;;5.47;;
30723;SDS011;17473;52.286;20.930;2023-02-01T18:15:14;13.67;;;5.53;;